Time;durP1;ratioP1;P1;durP2;ratioP2;P2;SDS_P1;SDS_P2;PMS_P1;PMS_P2;Temp;Humidity;BMP_temperature;BMP_pressure;BME280_temperature;BME280_humidity;BME280_pressure;Samples;Min_cycle;Max_cycle;Signal;HPM_P1;HPM_P2
2022/03/19 00:01:37;;;;;;;18.23;9.93;;;8.70;99.90;;;;;;5043198;28;20044;-79
2022/03/19 00:04:06;;;;;;;21.25;10.65;;;8.70;99.90;;;;;;5029330;28;20028;-81
2022/03/19 00:06:39;;;;;;;20.77;10.38;;;8.50;99.90;;;;;;5049230;28;20056;-78
2022/03/19 00:09:10;;;;;;;19.75;10.55;;;8.70;99.90;;;;;;5044221;28;20032;-79
2022/03/19 00:11:36;;;;;;;18.67;10.77;;;8.70;99.90;;;;;;5044334;28;20078;-79
2022/03/19 00:14:03;;;;;;;18.67;9.82;;;8.30;99.90;;;;;;5039401;28;20120;-80
2022/03/19 00:16:30;;;;;;;25.85;11.73;;;8.60;99.90;;;;;;5045509;28;20048;-79
2022/03/19 00:18:58;;;;;;;24.70;12.55;;;8.60;99.90;;;;;;5048595;28;20032;-79
2022/03/19 00:21:25;;;;;;;20.40;9.25;;;8.60;99.90;;;;;;5062614;28;20014;-81
2022/03/19 00:23:51;;;;;;;21.25;11.52;;;8.60;99.90;;;;;;5037537;28;20120;-81
2022/03/19 00:26:19;;;;;;;23.45;12.77;;;8.50;99.90;;;;;;5061939;28;20032;-77
2022/03/19 00:28:46;;;;;;;23.27;12.18;;;8.50;99.90;;;;;;5048548;28;20043;-80
2022/03/19 00:31:12;;;;;;;22.77;11.57;;;8.50;99.90;;;;;;5041974;28;20028;-80
2022/03/19 00:33:39;;;;;;;22.13;11.88;;;8.40;99.90;;;;;;5038805;28;20037;-80
2022/03/19 00:36:06;;;;;;;25.77;12.48;;;8.40;99.90;;;;;;5059234;28;20033;-78
2022/03/19 00:38:32;;;;;;;23.92;12.32;;;8.30;99.90;;;;;;5052729;28;20040;-78
2022/03/19 00:41:00;;;;;;;35.47;14.52;;;8.10;99.90;;;;;;5068590;28;20077;-78
2022/03/19 00:43:29;;;;;;;42.03;16.27;;;8.20;99.90;;;;;;5046104;22;20065;-78
2022/03/19 00:46:00;;;;;;;32.03;13.65;;;8.30;99.90;;;;;;5007014;28;20455;-82
2022/03/19 00:48:29;;;;;;;25.98;11.40;;;8.30;99.90;;;;;;5031030;28;20029;-81
2022/03/19 00:50:56;;;;;;;23.85;11.05;;;8.40;99.90;;;;;;5026278;28;20113;-81
2022/03/19 00:53:23;;;;;;;22.30;11.85;;;8.30;99.90;;;;;;5030005;28;20119;-84
2022/03/19 00:55:49;;;;;;;24.00;11.73;;;8.40;99.90;;;;;;5029273;28;20045;-83
2022/03/19 00:58:15;;;;;;;30.00;13.63;;;8.30;99.90;;;;;;5024621;28;20474;-81
2022/03/19 01:00:41;;;;;;;24.48;11.85;;;8.30;99.90;;;;;;5027831;28;20030;-81
2022/03/19 01:03:07;;;;;;;21.13;11.18;;;8.30;99.90;;;;;;5029712;28;20409;-81
2022/03/19 01:05:33;;;;;;;26.35;12.88;;;8.30;99.90;;;;;;5028737;28;20030;-80
2022/03/19 01:07:58;;;;;;;26.85;11.98;;;8.30;99.90;;;;;;5027328;28;20038;-81
2022/03/19 01:10:26;;;;;;;22.58;12.10;;;8.20;99.90;;;;;;5026169;28;20402;-82
2022/03/19 01:12:54;;;;;;;24.80;12.38;;;10.20;99.90;;;;;;5030783;28;20032;-81
2022/03/19 01:15:20;;;;;;;24.52;12.20;;;8.20;99.90;;;;;;5028401;28;20355;-80
2022/03/19 01:17:47;;;;;;;23.27;12.77;;;8.10;99.90;;;;;;5032064;28;20046;-85
2022/03/19 01:20:15;;;;;;;25.40;12.38;;;8.00;99.90;;;;;;5028925;28;20026;-83
2022/03/19 01:22:46;;;;;;;21.77;11.13;;;8.10;99.90;;;;;;5028233;28;20460;-81
2022/03/19 01:25:12;;;;;;;;;;;8.10;99.90;;;;;;5028006;28;20363;-81
2022/03/19 01:27:41;;;;;;;23.10;10.85;;;8.10;99.90;;;;;;5030697;28;19905;-81
2022/03/19 01:30:09;;;;;;;21.35;11.60;;;8.10;99.90;;;;;;5024285;28;20116;-82
2022/03/19 01:32:35;;;;;;;22.45;12.30;;;;;;;;;;5045377;28;20026;-78
2022/03/19 01:35:01;;;;;;;24.98;12.43;;;8.10;99.90;;;;;;5038022;28;20466;-83
2022/03/19 01:37:30;;;;;;;21.75;12.60;;;9.70;99.90;;;;;;5039449;28;20033;-79
2022/03/19 01:39:56;;;;;;;25.33;12.40;;;8.10;99.90;;;;;;5030705;28;20037;-83
2022/03/19 01:42:29;;;;;;;25.45;12.82;;;8.00;99.90;;;;;;5029135;28;20041;-84
2022/03/19 01:44:56;;;;;;;24.67;11.10;;;8.00;99.90;;;;;;5032725;28;20044;-81
2022/03/19 01:47:23;;;;;;;25.98;12.73;;;8.00;99.90;;;;;;5035710;28;20060;-84
2022/03/19 01:49:49;;;;;;;22.92;12.52;;;8.40;99.90;;;;;;5037680;28;20025;-87
2022/03/19 01:52:15;;;;;;;20.73;11.98;;;9.20;99.90;;;;;;5033322;28;20047;-85
2022/03/19 01:54:45;;;;;;;24.25;12.18;;;8.30;99.90;;;;;;5043667;28;20487;-81
2022/03/19 01:57:14;;;;;;;27.08;12.43;;;7.90;99.90;;;;;;5030438;28;20093;-82
2022/03/19 01:59:42;;;;;;;22.67;12.13;;;8.00;99.90;;;;;;5031887;28;20029;-82
2022/03/19 02:02:10;;;;;;;27.10;12.82;;;8.00;99.90;;;;;;5035332;28;20033;-80
2022/03/19 02:04:37;;;;;;;21.95;11.93;;;8.00;99.90;;;;;;5024533;28;20956;-80
2022/03/19 02:07:05;;;;;;;25.40;12.00;;;7.90;99.90;;;;;;5033139;28;20051;-82
2022/03/19 02:09:31;;;;;;;22.52;11.48;;;7.90;99.90;;;;;;5025713;28;20064;-82
2022/03/19 02:11:57;;;;;;;22.13;11.88;;;7.90;99.90;;;;;;5032906;28;20041;-81
2022/03/19 02:14:23;;;;;;;24.67;11.82;;;;;;;;;;5033199;28;20107;-80
2022/03/19 02:16:49;;;;;;;27.27;12.15;;;7.90;99.90;;;;;;5032052;28;20029;-79
2022/03/19 02:19:15;;;;;;;24.25;11.63;;;7.80;99.90;;;;;;5031851;28;20064;-82
2022/03/19 02:21:49;;;;;;;24.90;10.52;;;7.80;99.90;;;;;;5034445;28;20025;-83
2022/03/19 02:27:00;;;;;;;23.55;11.55;;;8.00;99.90;;;;;;5032251;28;20535;-82
2022/03/19 02:29:26;;;;;;;26.52;11.48;;;;;;;;;;5031568;28;20112;-82
2022/03/19 02:31:58;;;;;;;24.25;11.35;;;7.80;99.90;;;;;;5025926;28;20044;-83
2022/03/19 02:34:24;;;;;;;23.05;11.63;;;8.10;99.90;;;;;;5032430;28;20033;-83
2022/03/19 02:36:50;;;;;;;22.98;11.02;;;7.70;99.90;;;;;;5035500;28;20052;-80
2022/03/19 02:39:28;;;;;;;22.02;11.38;;;7.70;99.90;;;;;;5033017;28;20107;-83
2022/03/19 02:41:54;;;;;;;25.17;11.25;;;7.70;99.90;;;;;;5036259;28;20041;-81
2022/03/19 02:44:21;;;;;;;23.92;11.07;;;7.60;99.90;;;;;;5047326;28;20030;-80
2022/03/19 02:46:48;;;;;;;24.38;13.13;;;7.60;99.90;;;;;;5036831;28;20026;-84
2022/03/19 02:49:19;;;;;;;22.20;11.30;;;7.60;99.90;;;;;;5031131;28;20029;-81
2022/03/19 02:51:46;;;;;;;22.48;10.45;;;7.60;99.90;;;;;;5026974;28;20026;-80
2022/03/19 02:54:17;;;;;;;24.00;12.15;;;7.50;99.90;;;;;;5033420;28;20033;-81
2022/03/19 02:56:43;;;;;;;;;;;7.50;99.90;;;;;;5033251;28;20018;-81
2022/03/19 02:59:18;;;;;;;24.63;10.60;;;7.60;99.90;;;;;;5033882;28;19920;-82
2022/03/19 03:01:50;;;;;;;23.60;10.48;;;7.50;99.90;;;;;;5026228;28;21436;-82
2022/03/19 03:04:16;;;;;;;23.35;10.60;;;7.50;99.90;;;;;;5033577;28;20028;-78
2022/03/19 03:06:45;;;;;;;20.60;10.15;;;7.60;99.90;;;;;;5028380;28;20025;-81
2022/03/19 03:09:11;;;;;;;26.80;11.23;;;7.60;99.90;;;;;;5031561;28;20029;-81
2022/03/19 03:11:38;;;;;;;20.05;9.43;;;7.50;99.90;;;;;;5032362;28;20044;-77
2022/03/19 03:14:06;;;;;;;20.40;10.48;;;7.70;99.90;;;;;;5034894;28;20164;-81
2022/03/19 03:16:32;;;;;;;21.15;10.07;;;7.40;99.90;;;;;;5040825;28;20037;-79
2022/03/19 03:19:01;;;;;;;22.63;10.52;;;9.10;99.90;;;;;;5042907;28;20041;-82
2022/03/19 03:21:27;;;;;;;23.25;10.07;;;7.40;99.90;;;;;;5038114;28;20113;-79
2022/03/19 03:23:57;;;;;;;22.35;10.32;;;7.50;99.90;;;;;;5029704;28;20068;-79
2022/03/19 03:26:23;;;;;;;21.83;10.15;;;7.50;99.90;;;;;;5032044;28;20496;-82
2022/03/19 03:28:49;;;;;;;19.00;10.32;;;7.70;99.90;;;;;;5036372;28;20026;-84
2022/03/19 03:31:15;;;;;;;18.30;9.18;;;8.60;99.90;;;;;;5037773;28;20037;-80
2022/03/19 03:33:41;;;;;;;21.38;10.52;;;7.40;99.90;;;;;;5036368;28;20025;-79
2022/03/19 03:36:08;;;;;;;21.75;9.98;;;7.40;99.90;;;;;;5026553;28;20386;-86
2022/03/19 03:38:33;;;;;;;19.00;8.55;;;7.40;99.90;;;;;;5033190;28;20104;-82
2022/03/19 03:40:59;;;;;;;19.67;10.10;;;7.40;99.90;;;;;;5042417;28;20478;-84
2022/03/19 03:43:25;;;;;;;18.67;8.85;;;;;;;;;;5022765;28;20116;-85
2022/03/19 03:45:51;;;;;;;16.45;8.95;;;;;;;;;;5037098;28;20124;-84
2022/03/19 03:48:18;;;;;;;19.45;9.15;;;;;;;;;;5038743;28;20083;-84
2022/03/19 03:50:44;;;;;;;18.38;8.95;;;;;;;;;;5037429;28;20021;-83
2022/03/19 03:53:10;;;;;;;20.92;9.75;;;7.20;99.90;;;;;;5037090;28;20029;-83
2022/03/19 03:55:37;;;;;;;21.17;9.88;;;7.20;99.90;;;;;;5038592;28;20120;-83
2022/03/19 03:58:04;;;;;;;20.38;9.55;;;7.20;99.90;;;;;;5039160;28;20057;-87
2022/03/19 04:00:30;;;;;;;29.35;10.50;;;7.20;99.90;;;;;;5039966;28;20034;-84
2022/03/19 04:02:57;;;;;;;19.98;9.15;;;;;;;;;;5038275;28;20025;-82
2022/03/19 04:05:23;;;;;;;21.33;9.80;;;;;;;;;;5036417;28;20382;-83
2022/03/19 04:07:49;;;;;;;20.05;9.30;;;;;;;;;;5036216;28;20029;-82
2022/03/19 04:10:15;;;;;;;19.65;9.55;;;;;;;;;;5037126;28;20025;-82
2022/03/19 04:12:41;;;;;;;20.65;10.07;;;;;;;;;;5037178;28;20029;-83
2022/03/19 04:15:07;;;;;;;20.83;9.15;;;7.10;99.90;;;;;;5037652;28;20053;-82
2022/03/19 04:17:34;;;;;;;20.95;9.48;;;7.10;99.90;;;;;;5036553;28;20033;-85
2022/03/19 04:20:00;;;;;;;22.77;9.43;;;;;;;;;;5035621;28;20031;-83
2022/03/19 04:22:36;;;;;;;19.00;9.75;;;7.00;99.90;;;;;;5036525;28;20029;-86
2022/03/19 04:25:03;;;;;;;18.75;9.38;;;6.90;99.90;;;;;;5035553;28;20026;-84
2022/03/19 04:27:29;;;;;;;22.20;9.63;;;;;;;;;;5037570;28;20112;-86
2022/03/19 04:29:56;;;;;;;20.52;9.13;;;;;;;;;;5024432;28;20438;-83
2022/03/19 04:32:22;;;;;;;15.73;8.80;;;;;;;;;;5016181;28;20405;-84
2022/03/19 04:34:48;;;;;;;22.98;10.10;;;;;;;;;;5016220;28;20433;-84
2022/03/19 04:37:15;;;;;;;21.15;10.55;;;;;;;;;;5017145;28;20132;-83
2022/03/19 04:39:41;;;;;;;21.58;9.82;;;;;;;;;;5017824;28;20026;-87
2022/03/19 04:42:07;;;;;;;21.23;9.50;;;;;;;;;;5017987;28;20103;-84
2022/03/19 04:44:33;;;;;;;21.33;9.65;;;;;;;;;;5016283;28;20069;-82
2022/03/19 04:46:59;;;;;;;22.02;8.95;;;;;;;;;;5042146;28;20104;-89
2022/03/19 04:49:26;;;;;;;22.75;9.60;;;;;;;;;;5049301;28;20076;-84
2022/03/19 04:51:52;;;;;;;21.33;9.95;;;;;;;;;;5036516;28;20038;-84
2022/03/19 04:54:20;;;;;;;17.85;9.20;;;;;;;;;;5035914;28;20108;-85
2022/03/19 04:56:46;;;;;;;19.65;9.07;;;;;;;;;;5036415;28;20534;-85
2022/03/19 04:59:14;;;;;;;20.80;9.63;;;6.80;99.90;;;;;;5036675;28;20072;-85
2022/03/19 05:01:40;;;;;;;23.35;9.75;;;;;;;;;;5035065;28;20036;-86
2022/03/19 05:04:06;;;;;;;24.95;10.90;;;6.70;99.90;;;;;;5034373;28;20025;-87
2022/03/19 05:06:32;;;;;;;26.50;9.77;;;7.70;99.90;;;;;;5033674;28;20029;-86
2022/03/19 05:11:42;;;;;;;20.75;10.60;;;6.60;99.90;;;;;;5036399;28;20060;-84
2022/03/19 05:14:09;;;;;;;22.35;9.93;;;6.70;99.90;;;;;;5033916;28;20462;-86
2022/03/19 05:16:35;;;;;;;24.33;10.00;;;6.70;99.90;;;;;;5034214;28;20120;-82
2022/03/19 05:19:02;;;;;;;17.67;8.88;;;6.70;99.90;;;;;;5037817;28;20061;-84
2022/03/19 05:21:28;;;;;;;22.63;10.02;;;6.70;99.90;;;;;;5034666;28;20029;-82
2022/03/19 05:23:54;;;;;;;20.88;9.52;;;6.70;99.90;;;;;;5034167;28;20410;-85
2022/03/19 05:26:21;;;;;;;20.48;10.15;;;;;;;;;;5034544;28;20033;-83
2022/03/19 05:28:47;;;;;;;25.13;10.15;;;6.60;99.90;;;;;;5035446;28;20049;-85
2022/03/19 05:31:12;;;;;;;20.70;9.32;;;8.80;99.90;;;;;;5033869;28;20148;-85
2022/03/19 05:36:26;;;;;;;25.13;10.25;;;6.60;99.90;;;;;;5035467;28;20044;-87
2022/03/19 05:38:53;;;;;;;25.75;10.20;;;6.70;99.90;;;;;;5036919;28;20052;-80
2022/03/19 05:41:19;;;;;;;21.90;10.02;;;7.50;99.90;;;;;;5036436;28;20021;-83
2022/03/19 05:43:44;;;;;;;18.42;9.90;;;6.60;99.90;;;;;;5034811;28;20063;-84
2022/03/19 05:46:10;;;;;;;23.27;10.15;;;6.70;99.90;;;;;;5035904;28;20402;-83
2022/03/19 05:48:36;;;;;;;22.92;10.32;;;6.60;99.90;;;;;;5036399;28;20022;-83
2022/03/19 05:51:02;;;;;;;24.80;10.43;;;6.60;99.90;;;;;;5036331;28;20371;-84
2022/03/19 05:53:28;;;;;;;22.48;10.82;;;6.90;99.90;;;;;;5037339;28;20030;-86
2022/03/19 05:55:54;;;;;;;26.50;10.95;;;7.10;99.90;;;;;;5036115;28;20032;-86
2022/03/19 05:58:20;;;;;;;27.42;11.45;;;;;;;;;;5025995;28;20021;-82
2022/03/19 06:00:47;;;;;;;24.02;10.75;;;;;;;;;;5036531;28;20025;-87
2022/03/19 06:03:13;;;;;;;25.83;11.52;;;6.70;99.90;;;;;;5048012;28;20009;-85
2022/03/19 06:05:39;;;;;;;25.63;11.88;;;;;;;;;;5040699;28;20041;-83
2022/03/19 06:08:05;;;;;;;25.27;11.05;;;6.70;99.90;;;;;;5037136;28;20030;-82
2022/03/19 06:10:35;;;;;;;21.60;11.40;;;6.70;99.90;;;;;;5035545;28;20402;-84
2022/03/19 06:13:01;;;;;;;23.80;10.82;;;;;;;;;;5035881;28;20116;-83
2022/03/19 06:15:27;;;;;;;20.08;9.63;;;;;;;;;;5034567;28;20576;-84
2022/03/19 06:17:53;;;;;;;24.02;11.13;;;;;;;;;;5034842;28;20026;-84
2022/03/19 06:20:22;;;;;;;23.45;11.90;;;;;;;;;;5038463;28;20089;-84
2022/03/19 06:22:49;;;;;;;28.15;12.00;;;;;;;;;;5038307;28;20025;-83
2022/03/19 06:25:15;;;;;;;25.30;11.57;;;;;;;;;;5039882;28;20080;-83
2022/03/19 06:27:41;;;;;;;22.70;11.02;;;;;;;;;;5038955;28;20092;-84
2022/03/19 06:30:08;;;;;;;26.58;11.38;;;6.70;99.90;;;;;;5026693;28;20124;-83
2022/03/19 06:32:36;;;;;;;22.35;11.38;;;6.70;99.90;;;;;;5027726;28;20184;-85
2022/03/19 06:35:03;;;;;;;24.70;11.68;;;;;;;;;;5038922;28;20096;-84
2022/03/19 06:37:29;;;;;;;28.13;12.15;;;;;;;;;;5041874;28;20029;-84
2022/03/19 06:39:57;;;;;;;28.13;12.88;;;;;;;;;;5037692;28;20087;-83
2022/03/19 06:42:23;;;;;;;27.13;12.15;;;;;;;;;;5051626;23;20049;-81
2022/03/19 06:44:53;;;;;;;25.00;11.63;;;;;;;;;;5042324;28;20022;-81
2022/03/19 06:47:21;;;;;;;27.75;12.35;;;7.00;99.90;;;;;;5042768;28;20028;-81
2022/03/19 06:49:47;;;;;;;28.42;11.93;;;;;;;;;;5043708;28;20547;-80
2022/03/19 06:52:17;;;;;;;22.35;11.15;;;7.10;99.90;;;;;;5046439;28;20120;-79
2022/03/19 06:54:44;;;;;;;27.65;12.68;;;7.20;99.90;;;;;;5015409;28;20098;-80
2022/03/19 06:57:14;;;;;;;25.55;11.40;;;;;;;;;;5053535;28;20057;-80
2022/03/19 06:59:41;;;;;;;27.02;12.40;;;7.40;99.90;;;;;;5050922;28;20085;-80
2022/03/19 07:02:07;;;;;;;24.25;11.15;;;;;;;;;;5053308;28;20045;-81
2022/03/19 07:04:37;;;;;;;25.38;12.38;;;;;;;;;;5053570;28;20043;-80
2022/03/19 07:07:06;;;;;;;27.35;11.35;;;;;;;;;;5038392;28;20006;-82
2022/03/19 07:09:32;;;;;;;22.98;10.93;;;6.50;99.90;;;;;;5036562;28;20064;-82
2022/03/19 07:12:17;;;;;;;32.78;12.20;;;7.60;99.90;;;;;;5053665;28;20026;-82
2022/03/19 07:14:43;;;;;;;20.67;11.15;;;;;;;;;;5041850;28;20037;-80
2022/03/19 07:17:25;;;;;;;21.83;11.32;;;7.70;99.90;;;;;;5043375;28;20108;-80
2022/03/19 07:19:54;;;;;;;25.17;11.20;;;;;;;;;;5038716;28;20025;-79
2022/03/19 07:22:22;;;;;;;20.83;10.50;;;;;;;;;;5040387;28;20104;-81
2022/03/19 07:24:54;;;;;;;22.40;10.43;;;10.40;99.90;;;;;;5025603;28;20033;-79
2022/03/19 07:27:25;;;;;;;25.65;12.60;;;7.90;99.90;;;;;;5043716;28;20045;-79
2022/03/19 07:29:53;;;;;;;26.05;11.18;;;8.10;99.90;;;;;;5045138;28;20033;-81
2022/03/19 07:32:23;;;;;;;24.55;10.60;;;5.80;99.90;;;;;;5044531;28;20045;-81
2022/03/19 07:34:56;;;;;;;28.05;11.70;;;8.00;99.90;;;;;;5044713;28;20089;-81
2022/03/19 07:37:37;;;;;;;21.48;11.05;;;8.10;99.90;;;;;;5036042;28;20112;-79
2022/03/19 07:43:13;;;;;;;23.58;10.15;;;8.30;99.90;;;;;;5038509;28;20144;-81
2022/03/19 07:45:44;;;;;;;19.00;9.75;;;8.30;99.90;;;;;;5039520;28;20052;-79
2022/03/19 07:48:11;;;;;;;23.42;10.63;;;8.30;99.90;;;;;;5048698;28;20025;-79
2022/03/19 07:50:44;;;;;;;20.55;9.50;;;8.40;99.90;;;;;;5044078;28;20029;-81
2022/03/19 07:53:12;;;;;;;21.73;9.82;;;;;;;;;;5043193;28;20032;-79
2022/03/19 07:55:39;;;;;;;21.23;10.20;;;;;;;;;;5042275;28;20034;-79
2022/03/19 07:58:05;;;;;;;23.50;9.18;;;;;;;;;;5044136;28;20025;-79
2022/03/19 08:01:02;;;;;;;20.40;10.02;;;8.50;99.90;;;;;;5049962;28;20030;-79
2022/03/19 08:03:50;;;;;;;20.45;9.27;;;8.60;99.90;;;;;;5046103;28;20061;-80
2022/03/19 08:06:19;;;;;;;21.00;10.18;;;8.70;99.90;;;;;;5042020;28;20030;-79
2022/03/19 08:08:56;;;;;;;19.30;10.05;;;8.80;99.90;;;;;;5031811;28;20152;-81
2022/03/19 08:11:27;;;;;;;19.70;9.48;;;8.90;99.90;;;;;;5036416;28;20083;-80
2022/03/19 08:14:34;;;;;;;21.42;9.73;;;9.00;99.90;;;;;;5034402;28;20050;-80
2022/03/19 08:17:10;;;;;;;22.88;9.88;;;8.70;99.90;;;;;;5041441;28;20041;-80
2022/03/19 08:19:41;;;;;;;19.85;9.80;;;9.00;99.90;;;;;;5023294;28;20437;-77
2022/03/19 08:22:14;;;;;;;;;;;10.10;99.90;;;;;;5043527;28;20033;-79
2022/03/19 08:24:48;;;;;;;21.65;9.38;;;8.80;99.90;;;;;;5036825;28;19949;-78
2022/03/19 08:27:17;;;;;;;23.02;10.45;;;9.20;99.90;;;;;;5043108;28;20029;-79
2022/03/19 08:29:45;;;;;;;23.58;10.38;;;9.50;99.90;;;;;;5027434;28;20044;-79
2022/03/19 08:32:18;;;;;;;26.13;10.75;;;9.20;99.90;;;;;;5034490;28;20033;-80
2022/03/19 08:34:47;;;;;;;22.60;10.30;;;9.30;99.90;;;;;;5043137;28;20371;-80
2022/03/19 08:37:14;;;;;;;21.52;10.60;;;11.00;99.90;;;;;;5029242;28;20057;-81
2022/03/19 08:42:52;;;;;;;21.10;10.82;;;9.60;99.50;;;;;;5047013;28;20039;-78
2022/03/19 08:45:48;;;;;;;23.25;11.48;;;9.40;99.60;;;;;;5061286;28;20063;-81
2022/03/19 08:48:20;;;;;;;24.35;11.68;;;9.80;99.60;;;;;;5056403;28;20044;-80
2022/03/19 08:51:39;;;;;;;21.88;11.65;;;9.20;99.40;;;;;;5045313;28;20039;-80
2022/03/19 08:53:41;;;;;;;23.13;11.65;;;8.60;99.20;;;;;;5044906;28;20029;-81
2022/03/19 08:56:15;;;;;;;19.90;11.57;;;8.00;98.20;;;;;;5028614;28;20128;-80
2022/03/19 08:59:03;;;;;;;22.83;12.05;;;9.90;98.40;;;;;;5057793;28;20037;-80
2022/03/19 09:01:32;;;;;;;21.85;12.05;;;9.90;97.90;;;;;;5041102;28;20033;-81
2022/03/19 09:04:04;;;;;;;24.60;12.30;;;9.40;97.50;;;;;;5043473;28;20032;-82
2022/03/19 09:06:36;;;;;;;24.73;12.45;;;10.30;96.90;;;;;;5048509;28;20060;-80
2022/03/19 09:09:19;;;;;;;24.33;11.48;;;10.40;96.20;;;;;;5059992;28;20033;-80
2022/03/19 09:11:48;;;;;;;24.27;11.85;;;9.10;96.10;;;;;;5022807;28;20521;-79
2022/03/19 09:14:20;;;;;;;24.52;13.90;;;10.30;96.30;;;;;;5030271;28;20402;-83
2022/03/19 09:16:50;;;;;;;24.98;12.93;;;10.60;95.40;;;;;;5060327;28;20029;-83
2022/03/19 09:19:37;;;;;;;23.85;12.57;;;10.90;95.80;;;;;;5029148;28;20079;-80
2022/03/19 09:22:04;;;;;;;26.70;13.63;;;10.30;95.00;;;;;;5041720;28;20037;-81
2022/03/19 09:24:35;;;;;;;23.40;12.80;;;10.60;94.50;;;;;;5045138;28;20159;-81
2022/03/19 09:27:05;;;;;;;23.73;12.70;;;10.80;94.40;;;;;;5045919;28;20029;-80
2022/03/19 09:29:34;;;;;;;20.38;11.65;;;10.90;94.00;;;;;;5042665;28;20499;-79
2022/03/19 09:32:00;;;;;;;25.67;13.10;;;11.10;92.90;;;;;;5037857;28;20059;-79
2022/03/19 09:34:30;;;;;;;22.45;13.07;;;10.30;93.40;;;;;;5040168;28;20029;-80
2022/03/19 09:37:01;;;;;;;22.55;13.20;;;11.10;93.10;;;;;;5054735;28;20033;-81
2022/03/19 09:39:27;;;;;;;22.98;13.18;;;;;;;;;;5043899;28;20017;-81
2022/03/19 09:41:58;;;;;;;23.50;11.52;;;11.20;92.50;;;;;;5032902;28;20479;-80
2022/03/19 09:44:27;;;;;;;23.35;13.35;;;12.50;93.30;;;;;;5042409;28;20036;-80
2022/03/19 09:46:57;;;;;;;26.60;12.85;;;11.30;93.30;;;;;;5035352;28;20417;-79
2022/03/19 09:49:25;;;;;;;22.10;11.70;;;11.50;92.70;;;;;;5049822;28;20056;-81
2022/03/19 09:51:53;;;;;;;23.20;12.20;;;11.50;91.80;;;;;;5058983;28;20067;-79
2022/03/19 09:54:21;;;;;;;20.60;11.45;;;11.50;92.50;;;;;;5041640;28;20048;-80
2022/03/19 09:56:47;;;;;;;25.23;12.85;;;11.70;92.10;;;;;;5056154;28;20021;-82
2022/03/19 09:59:33;;;;;;;22.05;13.23;;;13.70;92.40;;;;;;5076893;28;20051;-81
2022/03/19 10:02:28;;;;;;;23.92;12.57;;;11.90;90.40;;;;;;5074016;28;20036;-81
2022/03/19 10:04:57;;;;;;;24.90;12.00;;;11.70;90.50;;;;;;5077427;28;20009;-82
2022/03/19 10:10:15;;;;;;;20.33;12.13;;;11.90;90.60;;;;;;5069622;28;20028;-81
2022/03/19 10:12:45;;;;;;;23.45;12.60;;;12.00;89.90;;;;;;5060404;28;20023;-80
2022/03/19 10:15:13;;;;;;;24.42;12.48;;;;;;;;;;5064514;28;20071;-80
2022/03/19 10:17:49;;;;;;;27.88;13.15;;;12.50;89.40;;;;;;5055185;28;20109;-80
2022/03/19 10:20:15;;;;;;;26.20;13.10;;;11.90;90.80;;;;;;5067948;28;20009;-81
2022/03/19 10:22:47;;;;;;;25.15;12.88;;;12.00;89.10;;;;;;5068848;28;20051;-81
2022/03/19 10:25:18;;;;;;;25.33;12.52;;;11.60;89.90;;;;;;5065224;28;20009;-82
2022/03/19 10:27:46;;;;;;;24.13;12.52;;;12.10;89.90;;;;;;5021457;28;20026;-81
2022/03/19 10:30:24;;;;;;;29.15;12.50;;;12.40;89.50;;;;;;5041588;28;20025;-81
2022/03/19 10:32:56;;;;;;;26.73;13.85;;;12.10;90.30;;;;;;5036269;28;20152;-79
2022/03/19 10:35:36;;;;;;;23.83;13.30;;;13.10;90.00;;;;;;5044672;28;20078;-82
2022/03/19 10:38:16;;;;;;;25.52;12.95;;;12.10;87.60;;;;;;5062982;28;20021;-80
2022/03/19 10:40:47;;;;;;;24.70;13.10;;;12.10;85.80;;;;;;5064061;28;20021;-81
2022/03/19 10:43:23;;;;;;;18.38;10.43;;;12.10;86.30;;;;;;5046574;28;20017;-81
2022/03/19 10:45:56;;;;;;;20.90;11.57;;;11.40;85.30;;;;;;5045794;28;20092;-80
2022/03/19 10:48:25;;;;;;;20.48;11.48;;;12.20;85.50;;;;;;5031302;28;20035;-80
2022/03/19 10:50:57;;;;;;;23.63;12.13;;;12.20;85.40;;;;;;5031128;28;20055;-80
2022/03/19 10:53:27;;;;;;;23.13;11.52;;;12.40;86.70;;;;;;5047805;28;20029;-80
2022/03/19 10:55:54;;;;;;;20.97;11.37;;;11.20;86.50;;;;;;5046366;28;20052;-81
2022/03/19 10:58:23;;;;;;;19.67;11.13;;;12.20;87.00;;;;;;5047698;28;20264;-79
2022/03/19 11:00:51;;;;;;;21.10;11.10;;;12.40;84.40;;;;;;5035277;28;20071;-81
2022/03/19 11:03:29;;;;;;;19.85;10.20;;;12.40;84.80;;;;;;5072914;28;20100;-82
2022/03/19 11:06:05;;;;;;;19.02;10.73;;;12.70;82.80;;;;;;5062535;28;20049;-81
2022/03/19 11:08:43;;;;;;;21.15;11.15;;;11.30;83.30;;;;;;5071523;28;20418;-80
2022/03/19 11:11:41;;;;;;;19.02;11.15;;;12.90;82.20;;;;;;5060683;28;20378;-80
2022/03/19 11:14:31;;;;;;;18.48;8.75;;;12.90;78.30;;;;;;5042681;28;20427;-80
2022/03/19 11:17:32;;;;;;;16.60;9.27;;;12.90;79.50;;;;;;5055445;28;20025;-81
2022/03/19 11:20:18;;;;;;;15.35;8.65;;;12.90;77.90;;;;;;5050785;28;20437;-81
2022/03/19 11:22:58;;;;;;;16.60;8.95;;;12.90;78.20;;;;;;5040522;28;20047;-81
2022/03/19 11:25:54;;;;;;;21.50;8.57;;;12.80;79.50;;;;;;5067795;28;20088;-81
2022/03/19 11:28:46;;;;;;;19.45;9.05;;;14.80;80.80;;;;;;5054763;28;20037;-81
2022/03/19 11:31:28;;;;;;;16.48;8.40;;;13.10;77.40;;;;;;5044867;28;20427;-81
2022/03/19 11:34:43;;;;;;;15.23;7.63;;;13.50;76.70;;;;;;5055198;28;20461;-81
2022/03/19 11:37:16;;;;;;;19.20;7.53;;;13.30;73.90;;;;;;5045622;28;20056;-81
2022/03/19 11:40:29;;;;;;;14.18;8.02;;;13.20;74.40;;;;;;5036901;28;20025;-81
2022/03/19 11:43:36;;;;;;;14.30;7.03;;;13.50;72.70;;;;;;5032356;28;20082;-81
2022/03/19 11:46:46;;;;;;;13.82;7.57;;;10.80;71.50;;;;;;5055634;28;20025;-80
2022/03/19 11:49:54;;;;;;;15.43;6.97;;;12.90;71.60;;;;;;5039636;28;20033;-82
2022/03/19 11:55:44;;;;;;;10.75;5.47;;;13.50;70.20;;;;;;5052460;28;20047;-81
2022/03/19 11:58:44;;;;;;;9.98;5.30;;;13.60;69.70;;;;;;5038015;28;20033;-80
2022/03/19 12:01:11;;;;;;;11.57;5.30;;;;;;;;;;5058966;28;20029;-79
2022/03/19 12:04:05;;;;;;;11.27;5.82;;;13.70;68.20;;;;;;5058272;28;20072;-81
2022/03/19 12:06:36;;;;;;;11.05;5.40;;;14.00;68.20;;;;;;5056363;28;20390;-82
2022/03/19 12:09:10;;;;;;;8.98;4.90;;;13.80;68.00;;;;;;5036341;28;20029;-81
2022/03/19 12:11:40;;;;;;;10.95;5.80;;;13.80;66.90;;;;;;5045532;28;20056;-81
2022/03/19 12:14:10;;;;;;;10.30;4.38;;;13.90;67.50;;;;;;5063409;28;20033;-81
2022/03/19 12:16:44;;;;;;;11.63;5.07;;;12.90;65.70;;;;;;5062944;28;20436;-80
2022/03/19 12:19:39;;;;;;;10.13;5.35;;;13.60;65.70;;;;;;5056245;28;20029;-81
2022/03/19 12:22:05;;;;;;;9.05;4.22;;;;;;;;;;5057414;28;20021;-79
2022/03/19 12:25:16;;;;;;;7.65;3.65;;;14.10;59.70;;;;;;5041690;28;20021;-81
2022/03/19 12:27:58;;;;;;;9.13;4.25;;;14.10;60.20;;;;;;5043820;28;20044;-81
2022/03/19 12:30:25;;;;;;;7.53;3.72;;;14.10;59.70;;;;;;5036823;28;20086;-81
2022/03/19 12:33:13;;;;;;;9.60;3.97;;;14.00;60.10;;;;;;5060117;28;20067;-81
2022/03/19 12:35:47;;;;;;;9.05;4.07;;;14.00;61.70;;;;;;5038461;28;20056;-81
2022/03/19 12:38:32;;;;;;;6.72;3.40;;;14.30;62.70;;;;;;5069884;28;20086;-82
2022/03/19 12:41:29;;;;;;;7.93;3.30;;;14.10;62.30;;;;;;5058524;28;20497;-81
2022/03/19 12:44:04;;;;;;;5.95;3.17;;;13.70;59.50;;;;;;5057164;22;20053;-88
2022/03/19 12:46:38;;;;;;;7.13;3.00;;;14.40;60.00;;;;;;5005504;28;20029;-90
2022/03/19 12:49:12;;;;;;;7.72;3.72;;;15.60;61.00;;;;;;5039519;28;20048;-90
2022/03/19 12:51:47;;;;;;;11.07;3.40;;;14.50;56.50;;;;;;5049193;28;20018;-90
2022/03/19 12:54:20;;;;;;;8.90;2.83;;;14.60;56.90;;;;;;5043855;28;20077;-88
2022/03/19 12:56:46;;;;;;;7.32;2.97;;;;;;;;;;5020297;28;20444;-87
2022/03/19 12:59:29;;;;;;;9.20;3.20;;;14.40;55.10;;;;;;5023229;28;20038;-87
2022/03/19 13:01:56;;;;;;;7.25;3.70;;;14.30;56.70;;;;;;5021076;28;20022;-87
2022/03/19 13:04:27;;;;;;;8.15;3.10;;;14.40;58.30;;;;;;5023169;28;20037;-88
2022/03/19 13:06:53;;;;;;;6.97;3.17;;;14.40;56.30;;;;;;5016371;28;20037;-87
2022/03/19 13:09:37;;;;;;;6.68;3.13;;;14.50;57.80;;;;;;5030298;28;20109;-89
2022/03/19 13:12:05;;;;;;;8.23;3.25;;;14.40;56.20;;;;;;5026388;28;20164;-88
2022/03/19 13:14:35;;;;;;;5.45;3.53;;;14.30;56.00;;;;;;5042761;28;20049;-90
2022/03/19 13:17:01;;;;;;;8.07;3.40;;;;;;;;;;5029107;28;20014;-88
2022/03/19 13:19:34;;;;;;;6.60;3.08;;;14.40;54.80;;;;;;5026388;28;20029;-87
2022/03/19 13:22:08;;;;;;;5.95;3.00;;;15.80;55.90;;;;;;5014990;28;20026;-88
2022/03/19 13:24:36;;;;;;;5.95;3.25;;;14.20;54.20;;;;;;5024737;28;20070;-87
2022/03/19 13:27:03;;;;;;;8.00;2.90;;;;;;;;;;5023881;28;20032;-88
2022/03/19 13:29:32;;;;;;;8.80;2.55;;;14.20;53.20;;;;;;5028543;28;20116;-88
2022/03/19 13:32:08;;;;;;;5.32;2.88;;;14.30;51.90;;;;;;5028023;28;20018;-84
2022/03/19 13:34:42;;;;;;;6.18;2.97;;;14.20;51.10;;;;;;5028143;28;20036;-88
2022/03/19 13:37:15;;;;;;;6.18;2.50;;;14.10;50.10;;;;;;5028924;28;20033;-88
2022/03/19 13:39:46;;;;;;;6.10;2.60;;;14.10;50.20;;;;;;5013994;28;20061;-87